Time;durP1;ratioP1;P1;durP2;ratioP2;P2;SDS_P1;SDS_P2;PMS_P1;PMS_P2;Temp;Humidity;BMP_temperature;BMP_pressure;BME280_temperature;BME280_humidity;BME280_pressure;Samples;Min_cycle;Max_cycle;Signal;HPM_P1;HPM_P2
2022/03/10 00:02:05;;;;;;;43.10;18.27;;;8.80;68.00;;;;;;4949918;28;20279;-80
2022/03/10 00:04:31;;;;;;;36.63;17.60;;;8.70;68.20;;;;;;4983203;28;20176;-80
2022/03/10 00:06:58;;;;;;;44.87;19.17;;;8.80;68.40;;;;;;4964873;28;20227;-80
2022/03/10 00:09:23;;;;;;;42.60;18.90;;;8.60;68.40;;;;;;4935932;28;20188;-79
2022/03/10 00:11:49;;;;;;;43.47;19.00;;;8.60;68.60;;;;;;4951177;28;20213;-80
2022/03/10 00:14:15;;;;;;;37.90;17.70;;;8.60;68.90;;;;;;4951849;28;20212;-79
2022/03/10 00:16:40;;;;;;;40.60;18.43;;;8.50;69.00;;;;;;4950976;28;20196;-80
2022/03/10 00:19:06;;;;;;;43.40;18.70;;;8.50;69.20;;;;;;4952407;28;20201;-81
2022/03/10 00:21:32;;;;;;;42.23;18.57;;;8.50;70.10;;;;;;4933523;28;20247;-82
2022/03/10 00:23:58;;;;;;;41.40;19.37;;;8.40;69.50;;;;;;4965468;28;20219;-80
2022/03/10 00:26:23;;;;;;;41.30;18.93;;;8.40;69.60;;;;;;4964066;28;20615;-79
2022/03/10 00:28:49;;;;;;;37.37;17.93;;;8.40;69.80;;;;;;4946801;28;20216;-80
2022/03/10 00:31:15;;;;;;;43.33;19.47;;;8.30;70.00;;;;;;4962727;28;20667;-82
2022/03/10 00:33:40;;;;;;;42.80;19.10;;;8.30;70.20;;;;;;4930528;28;20208;-80
2022/03/10 00:36:07;;;;;;;42.57;18.00;;;8.20;70.30;;;;;;4946643;28;20216;-79
2022/03/10 00:38:33;;;;;;;41.33;19.20;;;8.20;70.50;;;;;;4947019;28;20200;-80
2022/03/10 00:40:59;;;;;;;40.67;17.70;;;8.20;70.70;;;;;;4979906;28;20189;-80
2022/03/10 00:43:25;;;;;;;37.43;17.53;;;8.20;71.00;;;;;;4944954;28;20392;-81
2022/03/10 00:45:50;;;;;;;39.37;19.57;;;8.10;71.10;;;;;;4960285;28;20192;-79
2022/03/10 00:48:16;;;;;;;42.93;17.50;;;8.10;71.40;;;;;;4946855;28;20211;-80
2022/03/10 00:50:42;;;;;;;39.60;19.33;;;8.00;71.50;;;;;;4962824;28;20211;-79
2022/03/10 00:53:07;;;;;;;45.83;18.77;;;8.00;71.70;;;;;;4942371;28;20223;-81
2022/03/10 00:55:33;;;;;;;44.63;18.40;;;8.00;71.90;;;;;;4946338;28;20199;-81
2022/03/10 00:57:59;;;;;;;41.57;17.93;;;8.00;72.10;;;;;;4961081;28;20789;-79
2022/03/10 01:00:28;;;;;;;37.33;18.27;;;7.90;72.20;;;;;;4959077;28;20197;-81
2022/03/10 01:02:55;;;;;;;45.70;19.13;;;7.90;72.50;;;;;;4929590;28;20233;-79
2022/03/10 01:05:21;;;;;;;43.63;18.73;;;7.90;72.60;;;;;;4946083;28;20280;-79
2022/03/10 01:07:47;;;;;;;40.97;18.07;;;7.90;72.80;;;;;;4944276;28;20261;-80
2022/03/10 01:10:15;;;;;;;46.30;20.33;;;7.80;73.00;;;;;;4943614;28;20188;-80
2022/03/10 01:12:44;;;;;;;41.87;18.63;;;7.80;73.20;;;;;;4929223;28;20217;-79
2022/03/10 01:15:11;;;;;;;42.17;18.50;;;7.70;73.30;;;;;;4945658;28;20209;-79
2022/03/10 01:17:37;;;;;;;41.53;18.07;;;7.70;73.50;;;;;;4945456;28;20192;-79
2022/03/10 01:20:04;;;;;;;40.67;18.37;;;7.70;73.70;;;;;;4946175;28;20546;-80
2022/03/10 01:22:30;;;;;;;41.73;19.63;;;7.70;73.90;;;;;;4943694;28;20701;-80
2022/03/10 01:24:55;;;;;;;44.37;18.47;;;7.70;74.10;;;;;;4960318;28;20655;-79
2022/03/10 01:27:21;;;;;;;47.80;19.00;;;7.60;74.20;;;;;;4943184;28;20208;-80
2022/03/10 01:29:47;;;;;;;47.00;19.60;;;7.60;74.40;;;;;;4960423;28;20225;-80
2022/03/10 01:32:12;;;;;;;47.73;19.37;;;7.60;74.60;;;;;;4959756;28;20213;-79
2022/03/10 01:34:39;;;;;;;38.70;18.70;;;7.60;74.70;;;;;;4959353;28;20273;-78
2022/03/10 01:37:04;;;;;;;43.77;19.27;;;7.60;74.90;;;;;;4927340;28;20190;-80
2022/03/10 01:39:33;;;;;;;42.47;19.80;;;7.60;75.10;;;;;;4944818;28;20197;-78
2022/03/10 01:42:00;;;;;;;43.93;19.03;;;7.50;75.20;;;;;;4961854;28;20290;-79
2022/03/10 01:44:26;;;;;;;39.57;17.80;;;7.50;75.40;;;;;;4944378;28;20212;-79
2022/03/10 01:46:51;;;;;;;42.53;19.20;;;7.60;75.60;;;;;;4942068;28;20215;-80
2022/03/10 01:49:17;;;;;;;42.40;18.73;;;7.60;75.70;;;;;;4961665;28;20737;-79
2022/03/10 01:51:43;;;;;;;42.43;18.90;;;7.60;75.70;;;;;;4959515;28;20240;-80
2022/03/10 01:54:10;;;;;;;41.70;19.33;;;7.70;75.80;;;;;;4961077;28;20224;-80
2022/03/10 01:56:35;;;;;;;42.97;19.40;;;7.70;75.90;;;;;;4928968;28;20193;-81
2022/03/10 01:59:04;;;;;;;42.63;18.80;;;7.70;76.00;;;;;;4943657;28;20537;-80
2022/03/10 02:01:31;;;;;;;40.80;19.13;;;7.70;76.20;;;;;;4944704;28;20232;-80
2022/03/10 02:03:57;;;;;;;41.27;19.30;;;7.60;76.20;;;;;;4959365;28;20176;-79
2022/03/10 02:06:24;;;;;;;38.10;18.77;;;7.60;76.50;;;;;;4977420;28;20196;-79
2022/03/10 02:11:37;;;;;;;40.83;18.57;;;7.50;76.90;;;;;;4963214;28;20292;-78
2022/03/10 02:17:19;;;;;;;45.07;20.13;;;7.40;77.10;;;;;;4962858;28;20276;-80
2022/03/10 02:19:32;;;;;;;39.80;18.93;;;7.30;77.60;;;;;;4959779;28;20257;-79
2022/03/10 02:22:08;;;;;;;43.50;19.10;;;7.40;77.80;;;;;;4961350;28;20850;-78
2022/03/10 02:24:36;;;;;;;42.00;19.87;;;7.20;78.00;;;;;;4975033;28;20188;-80
2022/03/10 02:27:21;;;;;;;39.27;18.07;;;7.20;78.20;;;;;;4976984;28;20268;-78
2022/03/10 02:29:50;;;;;;;45.60;19.37;;;7.20;78.50;;;;;;4958171;28;20587;-79
2022/03/10 02:32:17;;;;;;;44.43;20.33;;;7.20;78.60;;;;;;4978017;28;20275;-79
2022/03/10 02:34:44;;;;;;;49.97;20.87;;;7.20;78.70;;;;;;4941962;28;20275;-80
2022/03/10 02:37:10;;;;;;;42.20;19.80;;;7.10;78.90;;;;;;4925306;28;20188;-80
2022/03/10 02:39:37;;;;;;;38.60;18.53;;;7.10;79.10;;;;;;4944233;28;20209;-79
2022/03/10 02:42:04;;;;;;;41.43;19.60;;;7.10;79.30;;;;;;4943444;28;20611;-79
2022/03/10 02:44:30;;;;;;;43.57;19.30;;;7.00;79.50;;;;;;4945316;28;20227;-79
2022/03/10 02:46:56;;;;;;;40.70;18.63;;;7.00;79.70;;;;;;4958740;28;20188;-79
2022/03/10 02:49:22;;;;;;;42.30;19.87;;;7.00;80.00;;;;;;4945366;28;20200;-79
2022/03/10 02:51:48;;;;;;;40.83;18.73;;;7.00;80.20;;;;;;4957494;28;20307;-79
2022/03/10 02:54:13;;;;;;;45.07;19.03;;;7.00;80.40;;;;;;4928110;28;20274;-79
2022/03/10 02:56:40;;;;;;;40.13;18.43;;;7.00;80.60;;;;;;4945082;28;20186;-81
2022/03/10 02:59:06;;;;;;;41.73;18.70;;;6.90;80.80;;;;;;4958756;28;20222;-79
2022/03/10 03:01:31;;;;;;;43.27;20.03;;;6.90;81.00;;;;;;4941903;28;20247;-80
2022/03/10 03:03:57;;;;;;;38.70;18.67;;;6.90;81.30;;;;;;4960801;28;20193;-80
2022/03/10 03:06:23;;;;;;;41.27;18.83;;;6.90;81.50;;;;;;4959448;28;20284;-78
2022/03/10 03:08:49;;;;;;;47.63;20.07;;;6.80;81.70;;;;;;4975817;28;20195;-80
2022/03/10 03:11:15;;;;;;;41.13;18.73;;;6.80;81.90;;;;;;4964017;28;20455;-80
2022/03/10 03:13:40;;;;;;;40.53;19.87;;;6.80;82.20;;;;;;4964947;28;20301;-78
2022/03/10 03:16:07;;;;;;;44.70;19.67;;;6.80;82.40;;;;;;4961371;28;20228;-79
2022/03/10 03:18:33;;;;;;;43.23;19.07;;;6.80;82.80;;;;;;4933688;28;20680;-80
2022/03/10 03:20:59;;;;;;;40.47;19.10;;;6.80;83.60;;;;;;4931934;28;20197;-80
2022/03/10 03:23:24;;;;;;;46.23;19.87;;;6.80;83.20;;;;;;4947625;28;20322;-79
2022/03/10 03:25:51;;;;;;;39.80;17.33;;;6.80;83.40;;;;;;4961036;28;20283;-79
2022/03/10 03:28:19;;;;;;;40.87;19.73;;;6.80;83.70;;;;;;4947142;28;20217;-79
2022/03/10 03:30:45;;;;;;;41.27;19.53;;;6.70;83.90;;;;;;4948091;28;20197;-80
2022/03/10 03:33:11;;;;;;;43.27;19.77;;;6.70;84.10;;;;;;4944881;28;20232;-79
2022/03/10 03:35:37;;;;;;;42.07;18.80;;;6.70;84.30;;;;;;4946074;28;20215;-79
2022/03/10 03:38:02;;;;;;;39.60;18.73;;;6.70;84.50;;;;;;4946572;28;20590;-79
2022/03/10 03:40:28;;;;;;;40.40;17.47;;;6.70;84.80;;;;;;4961111;28;20195;-78
2022/03/10 03:42:53;;;;;;;37.03;18.27;;;6.70;85.10;;;;;;4947132;28;20217;-80
2022/03/10 03:45:19;;;;;;;44.53;19.60;;;6.70;85.30;;;;;;4946018;28;20249;-78
2022/03/10 03:47:45;;;;;;;40.77;18.67;;;6.70;85.50;;;;;;4961015;28;20200;-78
2022/03/10 03:50:12;;;;;;;41.87;19.30;;;6.70;85.70;;;;;;4961692;28;20595;-78
2022/03/10 03:52:38;;;;;;;39.80;18.40;;;6.60;85.90;;;;;;4961870;28;20706;-78
2022/03/10 03:55:04;;;;;;;42.50;19.27;;;6.60;86.20;;;;;;4978413;28;20197;-78
2022/03/10 03:57:30;;;;;;;39.83;19.27;;;6.60;86.50;;;;;;4946041;28;20267;-79
2022/03/10 03:59:55;;;;;;;43.07;18.13;;;6.60;86.80;;;;;;4928773;28;20196;-77
2022/03/10 04:02:23;;;;;;;42.57;19.07;;;6.60;87.10;;;;;;4959802;28;20241;-79
2022/03/10 04:04:48;;;;;;;42.27;18.63;;;6.50;88.10;;;;;;4960370;28;20207;-78
2022/03/10 04:07:15;;;;;;;38.97;19.07;;;6.50;87.80;;;;;;4962142;28;20197;-79
2022/03/10 04:09:41;;;;;;;41.73;19.37;;;6.50;88.20;;;;;;4945748;28;20676;-79
2022/03/10 04:12:07;;;;;;;40.40;18.70;;;6.40;88.50;;;;;;4943145;28;20290;-79
2022/03/10 04:14:33;;;;;;;43.63;19.23;;;6.40;88.90;;;;;;4962384;28;20773;-79
2022/03/10 04:16:58;;;;;;;48.67;19.30;;;6.40;89.30;;;;;;4944440;28;20183;-78
2022/03/10 04:19:24;;;;;;;41.63;18.20;;;6.40;89.60;;;;;;4945345;28;20197;-79
2022/03/10 04:21:50;;;;;;;45.23;19.73;;;6.30;90.00;;;;;;4978669;28;20644;-79
2022/03/10 04:24:15;;;;;;;43.33;18.80;;;6.30;90.10;;;;;;4960629;28;20232;-78
2022/03/10 04:26:42;;;;;;;39.53;19.43;;;6.30;90.30;;;;;;4977536;28;20239;-78
2022/03/10 04:29:08;;;;;;;42.30;19.87;;;6.30;90.50;;;;;;4960050;28;20212;-80
2022/03/10 04:31:34;;;;;;;48.63;19.73;;;6.20;90.70;;;;;;4943869;28;20211;-78
2022/03/10 04:34:00;;;;;;;41.70;20.47;;;6.20;90.90;;;;;;4928388;28;20291;-78
2022/03/10 04:36:25;;;;;;;45.93;20.43;;;6.10;91.10;;;;;;4931322;28;20201;-79
2022/03/10 04:38:51;;;;;;;41.23;17.97;;;6.10;91.40;;;;;;4929416;28;20293;-79
2022/03/10 04:41:17;;;;;;;40.23;19.13;;;6.10;91.60;;;;;;4927841;28;20200;-78
2022/03/10 04:43:43;;;;;;;42.60;19.63;;;6.00;91.80;;;;;;4961881;28;20572;-77
2022/03/10 04:46:08;;;;;;;45.87;19.70;;;6.00;92.00;;;;;;4957580;28;20219;-77
2022/03/10 04:48:34;;;;;;;41.47;19.83;;;6.00;92.30;;;;;;4960959;28;20208;-79
2022/03/10 04:51:00;;;;;;;44.97;21.20;;;6.00;92.50;;;;;;4957852;28;20280;-79
2022/03/10 04:53:27;;;;;;;47.70;19.97;;;5.90;92.70;;;;;;4943241;28;20219;-79
2022/03/10 04:55:52;;;;;;;45.40;20.60;;;5.90;93.00;;;;;;4960700;28;20283;-78
2022/03/10 04:58:18;;;;;;;43.37;20.37;;;5.90;93.20;;;;;;4943720;28;20201;-79
2022/03/10 05:00:44;;;;;;;43.73;20.30;;;5.80;93.40;;;;;;4944941;28;20690;-78
2022/03/10 05:03:09;;;;;;;46.67;20.80;;;5.80;93.70;;;;;;4957466;28;20201;-78
2022/03/10 05:05:35;;;;;;;42.63;20.13;;;5.80;93.90;;;;;;4927836;28;20207;-77
2022/03/10 05:08:01;;;;;;;41.97;19.90;;;5.70;94.10;;;;;;4941989;28;20196;-79
2022/03/10 05:10:27;;;;;;;41.80;20.63;;;5.70;94.40;;;;;;4960114;28;20300;-79
2022/03/10 05:13:01;;;;;;;38.57;20.00;;;5.70;94.70;;;;;;4941442;28;20215;-79
2022/03/10 05:15:31;;;;;;;38.17;19.57;;;5.60;95.00;;;;;;4938985;28;20601;-78
2022/03/10 05:17:57;;;;;;;39.23;19.17;;;5.60;95.30;;;;;;4955067;28;20185;-79
2022/03/10 05:20:25;;;;;;;46.03;20.67;;;5.60;95.60;;;;;;4976870;28;20280;-79
2022/03/10 05:22:56;;;;;;;45.50;20.67;;;5.60;95.90;;;;;;4976368;28;20862;-79
2022/03/10 05:25:24;;;;;;;48.63;20.80;;;5.60;96.20;;;;;;4958257;28;20197;-79
2022/03/10 05:27:51;;;;;;;43.43;21.47;;;5.50;96.40;;;;;;4943438;28;20320;-78
2022/03/10 05:30:18;;;;;;;46.00;20.30;;;5.40;96.60;;;;;;4979993;28;20725;-79
2022/03/10 05:32:45;;;;;;;43.97;19.87;;;5.40;96.90;;;;;;4977805;28;20203;-79
2022/03/10 05:35:14;;;;;;;44.03;21.03;;;5.40;97.10;;;;;;4928314;28;20252;-78
2022/03/10 05:37:40;;;;;;;47.00;19.97;;;5.40;97.30;;;;;;4976689;28;20181;-79
2022/03/10 05:40:12;;;;;;;45.63;21.20;;;5.30;97.60;;;;;;4977454;28;20294;-79
2022/03/10 05:42:38;;;;;;;42.53;19.20;;;5.30;97.80;;;;;;4957785;28;21079;-78
2022/03/10 05:45:05;;;;;;;44.97;20.63;;;5.30;98.00;;;;;;4959061;28;20198;-79
2022/03/10 05:47:31;;;;;;;40.53;20.47;;;5.30;98.20;;;;;;4946427;28;20185;-78
2022/03/10 05:49:57;;;;;;;42.60;20.00;;;5.20;98.40;;;;;;4944426;28;20234;-80
2022/03/10 05:52:22;;;;;;;43.17;20.00;;;5.20;98.60;;;;;;4959036;28;20558;-78
2022/03/10 05:54:48;;;;;;;48.00;20.33;;;5.20;98.80;;;;;;4927205;28;20735;-78
2022/03/10 05:57:14;;;;;;;43.13;19.70;;;5.20;99.00;;;;;;4956756;28;20189;-79
2022/03/10 05:59:39;;;;;;;44.23;20.07;;;5.20;99.20;;;;;;4978339;28;20681;-80
2022/03/10 06:02:05;;;;;;;43.07;20.53;;;5.20;99.40;;;;;;4958819;28;20240;-79
2022/03/10 06:04:30;;;;;;;42.40;19.87;;;5.20;99.60;;;;;;4958614;28;20197;-80
2022/03/10 06:06:56;;;;;;;44.67;20.73;;;5.10;99.70;;;;;;4978916;28;20271;-80
2022/03/10 06:09:22;;;;;;;42.30;19.97;;;5.10;99.90;;;;;;4927984;28;20531;-80
2022/03/10 06:11:48;;;;;;;41.13;20.47;;;5.10;99.90;;;;;;4959738;28;20228;-79
2022/03/10 06:14:14;;;;;;;45.17;19.87;;;5.10;99.90;;;;;;4940614;28;20580;-79
2022/03/10 06:16:40;;;;;;;41.27;21.70;;;5.10;99.90;;;;;;4928162;28;20195;-77
2022/03/10 06:19:08;;;;;;;41.13;19.43;;;5.10;99.90;;;;;;4959972;28;20196;-79
2022/03/10 06:21:34;;;;;;;45.63;20.23;;;5.00;99.90;;;;;;4927898;28;20201;-78
2022/03/10 06:24:00;;;;;;;43.27;20.20;;;5.10;99.90;;;;;;4942231;28;20207;-79
2022/03/10 06:26:25;;;;;;;42.97;20.10;;;5.10;99.90;;;;;;4942308;28;20194;-79
2022/03/10 06:28:51;;;;;;;47.43;20.60;;;5.10;99.90;;;;;;4944348;28;20208;-79
2022/03/10 06:31:17;;;;;;;44.93;20.40;;;5.10;99.90;;;;;;4941257;28;20201;-79
2022/03/10 06:33:42;;;;;;;41.57;20.53;;;5.10;99.90;;;;;;4954626;28;20276;-81
2022/03/10 06:36:08;;;;;;;45.93;21.67;;;5.10;99.90;;;;;;4973483;28;20197;-80
2022/03/10 06:38:36;;;;;;;44.10;20.73;;;5.10;99.90;;;;;;4938403;28;20315;-79
2022/03/10 06:41:02;;;;;;;43.40;20.67;;;5.10;99.90;;;;;;4957414;28;20184;-80
2022/03/10 06:43:27;;;;;;;45.47;19.90;;;5.10;99.90;;;;;;4944224;28;20234;-81
2022/03/10 06:45:53;;;;;;;46.03;19.60;;;5.20;99.90;;;;;;4944428;28;20197;-80
2022/03/10 06:48:20;;;;;;;46.13;20.93;;;5.30;99.90;;;;;;4979599;28;20295;-80
2022/03/10 06:50:45;;;;;;;48.77;21.47;;;5.30;99.90;;;;;;4963504;28;20199;-80
2022/03/10 06:53:12;;;;;;;50.80;21.20;;;5.40;99.90;;;;;;4932145;28;20212;-80
2022/03/10 06:55:38;;;;;;;42.17;19.83;;;5.40;99.90;;;;;;4963583;28;20630;-82
2022/03/10 06:58:05;;;;;;;43.43;20.90;;;5.40;99.90;;;;;;4945631;28;20209;-78
2022/03/10 07:00:31;;;;;;;44.03;19.90;;;5.40;99.90;;;;;;4960089;28;20566;-79
2022/03/10 07:02:57;;;;;;;49.00;21.50;;;5.50;99.90;;;;;;4945888;28;20242;-78
2022/03/10 07:05:23;;;;;;;45.17;18.23;;;5.50;99.90;;;;;;4944933;28;20191;-79
2022/03/10 07:07:49;;;;;;;46.07;19.63;;;5.50;99.90;;;;;;4947976;28;20188;-80
2022/03/10 07:10:15;;;;;;;48.73;21.57;;;5.50;99.90;;;;;;4932525;28;20292;-80
2022/03/10 07:12:41;;;;;;;41.83;19.73;;;5.50;99.90;;;;;;4979668;28;20248;-80
2022/03/10 07:15:12;;;;;;;40.50;19.90;;;5.60;99.90;;;;;;4961902;28;20219;-80
2022/03/10 07:17:39;;;;;;;49.60;21.27;;;5.60;99.90;;;;;;4961747;28;20192;-78
2022/03/10 07:20:05;;;;;;;52.07;20.97;;;5.60;99.90;;;;;;4915759;28;20199;-79
2022/03/10 07:22:31;;;;;;;44.70;20.83;;;5.60;99.90;;;;;;4947421;28;20710;-79
2022/03/10 07:24:56;;;;;;;45.93;21.10;;;5.60;99.90;;;;;;4978090;28;20235;-79
2022/03/10 07:27:22;;;;;;;44.43;20.47;;;5.70;99.90;;;;;;4947884;28;20189;-82
2022/03/10 07:29:48;;;;;;;46.07;21.47;;;5.70;99.90;;;;;;4977796;28;20201;-79
2022/03/10 07:32:14;;;;;;;45.50;21.10;;;5.80;99.90;;;;;;4946735;28;20272;-80
2022/03/10 07:34:39;;;;;;;43.03;20.23;;;5.80;99.90;;;;;;4933326;28;20273;-81
2022/03/10 07:37:05;;;;;;;50.00;21.77;;;5.90;99.90;;;;;;4929589;28;20665;-81
2022/03/10 07:39:31;;;;;;;42.17;20.47;;;5.90;99.90;;;;;;4947130;28;20788;-79
2022/03/10 07:41:56;;;;;;;48.67;20.77;;;6.00;99.90;;;;;;4963944;28;20556;-80
2022/03/10 07:44:25;;;;;;;43.97;21.43;;;6.00;99.90;;;;;;4947205;28;20205;-79
2022/03/10 07:46:50;;;;;;;37.60;19.67;;;6.00;99.90;;;;;;4961646;28;20250;-79
2022/03/10 07:49:17;;;;;;;50.73;21.17;;;6.10;99.90;;;;;;4964817;28;20679;-79
2022/03/10 07:51:44;;;;;;;45.20;21.47;;;6.10;99.90;;;;;;4945101;28;20180;-80
2022/03/10 07:54:10;;;;;;;45.00;19.57;;;6.20;99.90;;;;;;4947602;28;20276;-79
2022/03/10 07:56:36;;;;;;;39.30;20.47;;;6.20;99.90;;;;;;4977766;28;20190;-80
2022/03/10 07:59:02;;;;;;;43.93;20.57;;;6.30;99.90;;;;;;4961978;28;20212;-80
2022/03/10 08:01:27;;;;;;;46.13;21.00;;;6.40;99.90;;;;;;4943779;28;20605;-80
2022/03/10 08:03:53;;;;;;;47.67;21.13;;;6.40;99.90;;;;;;4962693;28;20258;-80
2022/03/10 08:06:21;;;;;;;54.93;21.17;;;6.50;99.90;;;;;;4946620;28;20599;-80
2022/03/10 08:08:47;;;;;;;48.37;22.13;;;6.50;99.90;;;;;;4946533;28;20263;-79
2022/03/10 08:11:13;;;;;;;44.10;20.07;;;6.60;99.90;;;;;;4964216;28;20197;-80
2022/03/10 08:13:38;;;;;;;49.17;20.47;;;6.70;99.90;;;;;;4963108;28;20221;-80
2022/03/10 08:16:04;;;;;;;46.27;21.27;;;6.70;99.90;;;;;;4961179;28;20359;-80
2022/03/10 08:18:30;;;;;;;44.53;20.83;;;6.80;99.90;;;;;;4929475;28;20196;-81
2022/03/10 08:20:57;;;;;;;47.63;21.83;;;6.90;99.90;;;;;;4945169;28;20266;-80
2022/03/10 08:23:23;;;;;;;44.57;21.60;;;7.00;99.90;;;;;;4942878;28;20224;-80
2022/03/10 08:25:53;;;;;;;49.70;21.30;;;7.00;99.90;;;;;;4959726;28;20267;-81
2022/03/10 08:28:19;;;;;;;42.83;20.20;;;7.10;99.90;;;;;;4960037;28;20201;-81
2022/03/10 08:30:44;;;;;;;45.63;20.93;;;7.20;99.90;;;;;;4948391;28;20555;-81
2022/03/10 08:33:10;;;;;;;41.53;20.33;;;7.30;99.90;;;;;;4960583;28;20185;-79
2022/03/10 08:35:36;;;;;;;39.77;19.63;;;7.40;99.90;;;;;;4929308;28;20188;-80
2022/03/10 08:38:02;;;;;;;47.70;20.63;;;7.50;99.90;;;;;;4977786;28;20744;-79
2022/03/10 08:40:28;;;;;;;49.10;20.03;;;7.50;99.90;;;;;;4943657;28;20208;-79
2022/03/10 08:42:54;;;;;;;42.50;20.00;;;7.60;99.90;;;;;;4979447;28;20295;-79
2022/03/10 08:45:25;;;;;;;39.63;20.97;;;7.70;99.90;;;;;;4977872;28;20285;-81
2022/03/10 08:47:51;;;;;;;41.67;20.13;;;8.20;99.90;;;;;;4977779;28;20177;-81
2022/03/10 08:50:17;;;;;;;40.80;20.47;;;9.80;99.90;;;;;;4980059;28;20188;-80
2022/03/10 08:52:42;;;;;;;43.43;19.90;;;11.70;99.90;;;;;;4929196;28;20208;-80
2022/03/10 08:55:09;;;;;;;42.93;20.10;;;13.30;99.90;;;;;;4945230;28;20196;-81
2022/03/10 08:57:36;;;;;;;43.57;20.30;;;14.70;99.10;;;;;;4962748;28;20276;-80
2022/03/10 09:00:03;;;;;;;38.83;20.70;;;15.70;97.00;;;;;;4943088;28;20205;-80
2022/03/10 09:02:29;;;;;;;31.90;18.27;;;16.60;95.10;;;;;;4979695;28;20238;-80
2022/03/10 09:04:54;;;;;;;38.20;19.97;;;17.20;93.30;;;;;;4947791;28;20741;-80
2022/03/10 09:07:20;;;;;;;37.33;19.47;;;17.60;92.00;;;;;;4933675;28;20256;-80
2022/03/10 09:09:46;;;;;;;31.27;18.77;;;18.10;90.90;;;;;;4930900;28;20834;-81
2022/03/10 09:12:12;;;;;;;33.77;18.87;;;18.50;89.70;;;;;;4948133;28;20620;-80
2022/03/10 09:14:38;;;;;;;36.10;18.73;;;18.90;87.50;;;;;;4931369;28;20211;-80
2022/03/10 09:17:04;;;;;;;35.93;18.77;;;19.30;85.20;;;;;;4965083;28;20184;-80
2022/03/10 09:19:29;;;;;;;35.20;19.60;;;19.50;82.90;;;;;;4965188;28;20579;-80
2022/03/10 09:21:55;;;;;;;36.50;19.87;;;19.70;80.90;;;;;;4946150;28;20284;-80
2022/03/10 09:24:21;;;;;;;33.80;19.13;;;19.90;79.40;;;;;;4948490;28;20202;-79
2022/03/10 09:26:46;;;;;;;33.40;19.00;;;20.20;77.90;;;;;;4944749;28;20231;-80
2022/03/10 09:29:12;;;;;;;38.77;19.00;;;20.40;76.10;;;;;;4947701;28;20229;-80
2022/03/10 09:31:39;;;;;;;36.87;19.20;;;20.50;74.70;;;;;;4942771;28;20289;-80
2022/03/10 09:34:04;;;;;;;31.27;18.90;;;20.70;73.50;;;;;;4972742;28;20796;-80
2022/03/10 09:36:33;;;;;;;33.77;18.70;;;21.00;72.30;;;;;;4974551;28;20227;-80
2022/03/10 09:38:58;;;;;;;32.77;18.63;;;21.30;70.60;;;;;;4944114;28;20289;-80
2022/03/10 09:41:25;;;;;;;33.13;19.97;;;21.60;69.50;;;;;;4944579;28;20297;-80
2022/03/10 09:43:50;;;;;;;32.80;19.57;;;21.90;68.40;;;;;;4943461;28;20313;-81
2022/03/10 09:46:16;;;;;;;35.27;19.70;;;22.20;67.00;;;;;;4957946;28;20290;-79
2022/03/10 09:48:43;;;;;;;32.43;19.70;;;22.60;66.60;;;;;;4975628;28;20235;-79
2022/03/10 09:51:09;;;;;;;35.10;18.77;;;22.80;64.40;;;;;;4978571;28;20489;-80
2022/03/10 09:53:35;;;;;;;29.17;18.40;;;23.10;63.20;;;;;;4925455;28;20591;-80
2022/03/10 09:56:05;;;;;;;39.77;19.10;;;23.10;62.00;;;;;;4960964;28;20188;-80
2022/03/10 09:58:34;;;;;;;31.33;18.20;;;23.30;61.00;;;;;;4944000;28;20213;-80
2022/03/10 10:01:06;;;;;;;33.43;19.03;;;23.40;60.30;;;;;;4943847;28;20208;-81
2022/03/10 10:03:33;;;;;;;29.13;18.47;;;23.70;59.40;;;;;;4928153;28;20235;-81
2022/03/10 10:06:01;;;;;;;39.43;18.47;;;23.90;59.00;;;;;;4945464;28;20221;-81
2022/03/10 10:08:27;;;;;;;30.83;19.40;;;24.20;58.30;;;;;;4957659;28;20684;-80
2022/03/10 10:10:56;;;;;;;33.37;19.47;;;24.60;57.60;;;;;;4960062;28;20202;-81
2022/03/10 10:13:28;;;;;;;28.00;17.87;;;25.00;56.70;;;;;;4944442;28;20221;-80
2022/03/10 10:15:59;;;;;;;33.83;17.87;;;25.30;55.90;;;;;;4961699;28;20657;-81
2022/03/10 10:18:26;;;;;;;29.83;17.60;;;25.80;55.20;;;;;;4957249;28;20189;-81
2022/03/10 10:20:53;;;;;;;32.40;18.40;;;26.40;54.50;;;;;;4960975;28;20218;-80
2022/03/10 10:23:27;;;;;;;29.27;18.50;;;26.60;53.10;;;;;;4981873;28;20286;-81
2022/03/10 10:25:56;;;;;;;31.87;18.90;;;26.80;52.00;;;;;;4979670;28;20714;-80
2022/03/10 10:28:29;;;;;;;27.27;18.03;;;26.90;51.50;;;;;;4962338;28;20209;-80
2022/03/10 10:31:42;;;;;;;30.60;17.60;;;27.10;50.70;;;;;;4980546;28;20249;-80
2022/03/10 10:34:11;;;;;;;25.80;17.37;;;27.30;49.90;;;;;;4975221;28;20571;-80
2022/03/10 10:36:38;;;;;;;33.13;18.07;;;27.50;49.90;;;;;;4959099;28;20188;-81
2022/03/10 10:39:16;;;;;;;27.97;18.03;;;27.90;49.30;;;;;;4933508;28;20728;-81
2022/03/10 10:41:43;;;;;;;80.63;22.83;;;28.60;48.40;;;;;;4932136;28;20196;-82
2022/03/10 10:44:16;;;;;;;47.05;18.88;;;28.90;47.70;;;;;;4964292;28;20212;-81
2022/03/10 10:46:48;;;;;;;141.52;28.27;;;29.10;46.80;;;;;;4979900;28;20708;-82
2022/03/10 10:49:16;;;;;;;27.33;17.17;;;29.20;46.20;;;;;;4962460;28;20529;-82
2022/03/10 10:51:46;;;;;;;27.70;16.98;;;29.30;45.50;;;;;;4977019;28;20184;-80
2022/03/10 10:54:21;;;;;;;24.55;16.58;;;29.40;45.20;;;;;;4962054;28;20314;-79
2022/03/10 10:56:48;;;;;;;28.40;16.42;;;29.50;44.50;;;;;;4961264;28;20331;-81
2022/03/10 10:59:36;;;;;;;26.20;17.35;;;29.70;44.40;;;;;;4961752;28;20692;-81
2022/03/10 11:02:13;;;;;;;31.50;16.98;;;30.10;43.70;;;;;;4960819;28;20223;-81
2022/03/10 11:04:44;;;;;;;24.60;16.67;;;30.70;43.60;;;;;;4946004;28;20211;-81
2022/03/10 11:07:11;;;;;;;25.40;16.63;;;31.30;42.50;;;;;;4960728;28;20191;-79
2022/03/10 11:09:39;;;;;;;26.40;16.83;;;31.10;42.20;;;;;;4962001;28;20214;-81
2022/03/10 11:12:06;;;;;;;24.75;15.93;;;31.00;41.50;;;;;;4960643;28;20274;-81
2022/03/10 11:14:31;;;;;;;23.60;15.98;;;31.20;41.10;;;;;;4980094;28;20214;-80
2022/03/10 11:16:59;;;;;;;25.30;15.63;;;31.10;40.60;;;;;;4943956;28;20200;-80
2022/03/10 11:19:26;;;;;;;23.65;15.85;;;31.10;40.00;;;;;;4961736;28;20216;-80
2022/03/10 11:22:02;;;;;;;21.95;15.18;;;31.00;39.50;;;;;;4959613;28;20629;-81
2022/03/10 11:24:46;;;;;;;21.80;14.85;;;30.90;39.30;;;;;;4979245;28;20184;-81
2022/03/10 11:27:37;;;;;;;25.38;15.05;;;30.80;38.80;;;;;;4960300;28;20567;-80
2022/03/10 11:30:05;;;;;;;21.38;15.15;;;31.10;38.80;;;;;;4957729;28;20364;-80
2022/03/10 11:32:31;;;;;;;25.58;14.98;;;31.60;38.40;;;;;;4960699;28;20684;-81
2022/03/10 11:35:00;;;;;;;23.20;15.23;;;32.10;37.90;;;;;;4945363;28;20267;-81
2022/03/10 11:37:41;;;;;;;21.58;14.35;;;32.20;37.00;;;;;;4980272;28;20251;-81
2022/03/10 11:40:13;;;;;;;24.50;14.23;;;32.10;36.50;;;;;;4960317;28;20284;-83
2022/03/10 11:42:40;;;;;;;21.15;14.02;;;32.10;36.60;;;;;;4961462;28;20218;-82
2022/03/10 11:45:15;;;;;;;22.00;14.80;;;32.50;36.10;;;;;;4962030;28;20211;-81
2022/03/10 11:47:41;;;;;;;22.77;14.57;;;32.70;35.50;;;;;;4976298;28;20191;-81
2022/03/10 11:50:22;;;;;;;20.05;13.88;;;32.50;35.00;;;;;;4961052;28;20196;-81
2022/03/10 11:53:02;;;;;;;20.08;14.38;;;32.40;34.30;;;;;;4958435;28;20219;-81
2022/03/10 11:55:39;;;;;;;23.77;14.68;;;32.20;34.30;;;;;;4959169;28;20188;-80
2022/03/10 11:58:06;;;;;;;20.90;14.18;;;32.30;34.10;;;;;;4978330;28;20205;-80
2022/03/10 12:00:43;;;;;;;21.17;13.80;;;31.90;34.00;;;;;;4962090;28;20565;-80
2022/03/10 12:03:10;;;;;;;21.30;12.75;;;31.40;33.60;;;;;;4978969;28;20263;-81
2022/03/10 12:05:57;;;;;;;22.15;13.77;;;30.90;33.60;;;;;;4961896;28;20183;-79
2022/03/10 12:08:26;;;;;;;20.65;13.43;;;29.50;33.10;;;;;;4945380;28;20196;-81
2022/03/10 12:10:52;;;;;;;20.58;13.60;;;27.50;34.10;;;;;;4975549;28;20251;-80
2022/03/10 12:13:44;;;;;;;24.60;14.48;;;26.30;35.30;;;;;;4980269;28;20206;-81
2022/03/10 12:16:27;;;;;;;25.05;14.15;;;26.20;36.10;;;;;;4978883;28;20203;-81
2022/03/10 12:18:53;;;;;;;21.48;13.15;;;26.60;36.30;;;;;;4961099;28;20194;-80
2022/03/10 12:21:30;;;;;;;21.67;14.35;;;27.30;37.10;;;;;;4945141;28;20176;-81
2022/03/10 12:24:05;;;;;;;21.80;13.95;;;27.80;35.80;;;;;;4958008;28;20227;-82
2022/03/10 12:26:31;;;;;;;20.85;14.73;;;28.10;35.80;;;;;;4959166;28;20191;-81
2022/03/10 12:29:03;;;;;;;22.17;14.73;;;28.40;35.80;;;;;;4959617;28;20698;-80
2022/03/10 12:31:32;;;;;;;22.92;15.15;;;28.50;35.70;;;;;;4960461;28;20294;-82
2022/03/10 12:34:02;;;;;;;23.27;14.30;;;28.40;35.60;;;;;;4960912;28;20267;-81
2022/03/10 12:36:34;;;;;;;22.33;14.32;;;27.70;35.50;;;;;;4959626;28;20180;-80
2022/03/10 12:39:03;;;;;;;24.42;14.65;;;26.30;35.80;;;;;;4978067;28;20181;-81
2022/03/10 12:41:36;;;;;;;24.15;15.05;;;24.90;36.60;;;;;;4960670;28;20247;-80